Impacts METAR Board INFO
IDs:

KDCA - Washington/National, VA, US

Updated at: 0138 UTC 26 Feb 2018
Potential Impact None Slight Moderate High
Time25/13Z 25/14Z 25/15Z 25/16Z 25/17Z 25/18Z 25/19Z 25/20Z 25/21Z 25/22Z 25/23Z 26/00Z 26/01Z
VIS1.5 5 10 10 10 10 10 10 9 9 7 7 9
CIG3 35 100 6 9 9 7 7 7 7 7 7 8
CoverOVCOVCOVCOVCOVCOVCOVCOVCOVCOVCOVCOVCOVC
FltCatLIFRMVFRVFRIFRIFRIFRIFRIFRIFRIFRIFRIFRIFR
WX-RA BR-RA BR-RA-RA-RA----------------
WDir110100170000016017016015090
WSpd3 3 0 5 0 6 0 0 5 6 5 3 3
WGst-- -- -- -- -- -- -- -- -- -- -- -- --
Raw hourly METARs
KDCA 251252Z 11003KT 1 1/2SM R01/6000FT -RA BR OVC003 09/09 A2998 RMK AO2 RAE24B43 SLP153 P0000 T00890089
KDCA 251402Z 01003KT 5SM -RA BR SCT007 BKN035 OVC090 09/09 A3002 RMK AO2 P0002 T00940089
KDCA 251452Z 00000KT 10SM -RA FEW007 SCT035 OVC100 09/09 A3000 RMK AO2 SLP159 P0003 60014 T00940089 50009
KDCA 251552Z 17005KT 10SM -RA OVC006 10/09 A2997 RMK AO2 PRESFR SLP148 P0001 T01000089
KDCA 251702Z 00000KT 10SM -RA BKN009 OVC100 11/09 A2993 RMK AO2 P0000 T01060094
KDCA 251755Z VRB06KT 10SM OVC009 11/09 A2998 RMK AO2 T01060094
KDCA 251852Z 00000KT 10SM OVC007 11/10 A2997 RMK AO2 RAB00E09 SLP148 P0000 T01110100
KDCA 251952Z 00000KT 10SM OVC007 12/11 A2998 RMK AO2 SLP151 T01170106
KDCA 252052Z 16005KT 9SM OVC007 11/11 A2996 RMK AO2 SLP146 60000 T01110106 58005
KDCA 252152Z 17006KT 9SM OVC007 11/11 A2995 RMK AO2 SLP142 T01110106
KDCA 252252Z 16005KT 7SM BKN007 OVC160 12/11 A2997 RMK AO2 SLP147 T01170111
KDCA 252352Z 15003KT 7SM OVC007 12/11 A3000 RMK AO2 SLP157 60000 T01170106 10117 20106 53012
KDCA 260052Z 09003KT 9SM OVC008 12/11 A3001 RMK AO2 SLP161 T01170111